createdAt,value
2018-12-29T00:02:25.334Z,33.27
2018-12-29T00:05:14.541Z,34.53
2018-12-29T00:08:03.204Z,31.60
2018-12-29T00:10:52.668Z,32.53
2018-12-29T00:13:23.074Z,35.43
2018-12-29T00:16:12.374Z,33.43
2018-12-29T00:19:00.600Z,31.30
2018-12-29T00:21:49.311Z,34.07
2018-12-29T00:24:38.853Z,33.00
2018-12-29T00:27:28.117Z,33.10
2018-12-29T00:30:17.193Z,34.97
2018-12-29T00:33:06.630Z,32.30
2018-12-29T00:35:55.687Z,34.10
2018-12-29T00:38:45.051Z,34.40
2018-12-29T00:41:34.080Z,32.67
2018-12-29T00:44:22.751Z,34.90
2018-12-29T00:47:12.394Z,35.80
2018-12-29T00:50:01.836Z,34.23
2018-12-29T00:52:50.526Z,36.17
2018-12-29T00:55:20.779Z,34.73
2018-12-29T00:58:09.828Z,36.60
2018-12-29T01:00:58.847Z,35.53
2018-12-29T01:03:47.869Z,36.53
2018-12-29T01:06:37.060Z,36.17
2018-12-29T01:09:26.592Z,36.10
2018-12-29T01:12:15.393Z,34.70
2018-12-29T01:15:09.849Z,37.33
2018-12-29T01:17:54.573Z,37.67
2018-12-29T01:20:44.145Z,34.90
2018-12-29T01:23:33.210Z,36.90
2018-12-29T01:26:22.369Z,36.97
2018-12-29T01:29:11.451Z,34.63
2018-12-29T01:32:00.165Z,36.83
2018-12-29T01:34:49.765Z,34.20
2018-12-29T01:37:19.931Z,36.30
2018-12-29T01:40:09.115Z,35.30
2018-12-29T01:42:58.560Z,36.27
2018-12-29T01:45:47.728Z,35.77
2018-12-29T01:48:30.996Z,34.87
2018-12-29T01:51:20.164Z,35.80
2018-12-29T01:54:08.857Z,34.37
2018-12-29T01:56:58.454Z,33.77
2018-12-29T01:59:47.479Z,33.60
2018-12-29T02:02:36.639Z,33.53
2018-12-29T02:05:25.394Z,35.57
2018-12-29T02:08:14.479Z,33.33
2018-12-29T02:11:03.445Z,32.80
2018-12-29T02:13:52.418Z,33.60
2018-12-29T02:16:41.325Z,33.87
2018-12-29T02:19:30.427Z,34.00
2018-12-29T02:22:19.805Z,33.67
2018-12-29T02:25:08.601Z,34.33
2018-12-29T02:27:57.009Z,32.47
2018-12-29T02:30:26.988Z,32.07
2018-12-29T02:33:16.326Z,32.43
2018-12-29T02:36:05.430Z,32.67
2018-12-29T02:38:54.926Z,31.63
2018-12-29T02:41:31.798Z,33.50
2018-12-29T02:44:20.434Z,32.90
2018-12-29T02:47:09.202Z,31.33
2018-12-29T02:49:58.581Z,31.37
2018-12-29T02:52:47.470Z,31.20
2018-12-29T02:55:36.817Z,32.27
2018-12-29T02:58:26.024Z,32.20
2018-12-29T03:00:56.198Z,33.20
2018-12-29T03:03:45.228Z,32.20
2018-12-29T03:06:34.328Z,32.10
2018-12-29T03:09:23.027Z,32.10
2018-12-29T03:12:12.117Z,31.00
2018-12-29T03:15:00.953Z,32.27
2018-12-29T03:17:50.108Z,31.77
2018-12-29T03:20:39.259Z,31.57
2018-12-29T03:23:28.238Z,31.70
2018-12-29T03:26:17.524Z,31.67
2018-12-29T03:29:06.738Z,32.87
2018-12-29T03:31:55.707Z,32.17
2018-12-29T03:34:44.710Z,34.20
2018-12-29T03:37:34.113Z,32.30
2018-12-29T03:40:22.653Z,32.80
2018-12-29T03:43:12.134Z,31.47
2018-12-29T03:46:01.503Z,31.10
2018-12-29T03:48:50.512Z,32.63
2018-12-29T03:51:39.873Z,33.23
2018-12-29T03:54:28.509Z,29.40
2018-12-29T03:57:17.550Z,32.67
2018-12-29T04:00:07.719Z,33.00
2018-12-29T04:02:52.812Z,31.47
2018-12-29T04:05:41.053Z,33.30
2018-12-29T04:08:32.291Z,31.57
2018-12-29T04:11:21.345Z,31.00
2018-12-29T04:14:10.873Z,32.10
2018-12-29T04:17:00.152Z,31.00
2018-12-29T04:19:49.263Z,31.00
2018-12-29T04:22:38.116Z,30.90
2018-12-29T04:25:27.857Z,34.07
2018-12-29T04:28:17.071Z,33.10
2018-12-29T04:31:05.811Z,33.70
2018-12-29T04:33:54.935Z,34.43
2018-12-29T04:36:44.406Z,31.37
2018-12-29T04:39:33.648Z,32.63
2018-12-29T04:42:22.297Z,34.10
2018-12-29T04:45:11.521Z,34.07
2018-12-29T04:48:00.106Z,33.60
2018-12-29T04:50:48.523Z,32.17
2018-12-29T04:53:37.810Z,34.90
2018-12-29T04:56:26.953Z,33.57
2018-12-29T04:59:15.812Z,32.83
2018-12-29T05:02:04.287Z,32.97
2018-12-29T05:04:53.195Z,31.10
2018-12-29T05:07:42.420Z,32.53
2018-12-29T05:10:31.357Z,33.43
2018-12-29T05:13:20.024Z,34.77
2018-12-29T05:16:12.817Z,31.63
2018-12-29T05:18:59.441Z,32.67
2018-12-29T05:21:48.428Z,33.00
2018-12-29T05:24:37.771Z,33.50
2018-12-29T05:27:09.100Z,33.43
2018-12-29T05:29:58.207Z,36.77
2018-12-29T05:32:47.113Z,34.37
2018-12-29T05:35:36.047Z,35.40
2018-12-29T05:38:24.972Z,36.00
2018-12-29T05:41:14.495Z,35.47
2018-12-29T05:44:03.612Z,34.87
2018-12-29T05:46:51.949Z,34.67
2018-12-29T05:49:40.926Z,34.53
2018-12-29T05:52:29.926Z,32.63
2018-12-29T05:55:18.795Z,35.10
2018-12-29T05:58:07.966Z,34.07
2018-12-29T06:00:57.491Z,33.97
2018-12-29T06:03:46.669Z,33.27
2018-12-29T06:06:36.103Z,33.30
2018-12-29T06:09:25.273Z,32.00
2018-12-29T06:12:14.131Z,33.30
2018-12-29T06:15:03.019Z,33.73
2018-12-29T06:17:51.903Z,33.40
2018-12-29T06:20:41.244Z,34.00
2018-12-29T06:23:30.151Z,33.87
2018-12-29T06:26:19.033Z,34.17
2018-12-29T06:28:55.732Z,34.80
2018-12-29T06:31:45.135Z,35.30
2018-12-29T06:34:34.291Z,32.60
2018-12-29T06:37:23.125Z,33.40
2018-12-29T06:40:12.040Z,34.07
2018-12-29T06:43:02.601Z,34.40
2018-12-29T06:45:51.166Z,32.03
2018-12-29T06:48:40.031Z,31.40
2018-12-29T06:51:28.790Z,32.07
2018-12-29T06:54:17.556Z,30.97
2018-12-29T06:57:06.389Z,34.43
2018-12-29T06:59:55.921Z,33.30
2018-12-29T07:02:45.319Z,33.23
2018-12-29T07:05:34.023Z,34.17
2018-12-29T07:08:23.596Z,33.67
2018-12-29T07:11:12.313Z,33.63
2018-12-29T07:14:01.266Z,31.97
2018-12-29T07:16:50.383Z,34.10
2018-12-29T07:19:39.291Z,34.10
2018-12-29T07:22:28.395Z,31.87
2018-12-29T07:25:17.408Z,31.93
2018-12-29T07:28:06.374Z,34.07
2018-12-29T07:30:55.148Z,33.10
2018-12-29T07:33:35.262Z,33.40
2018-12-29T07:36:24.820Z,33.90
2018-12-29T07:39:13.796Z,33.80
2018-12-29T07:42:02.882Z,34.87
2018-12-29T07:44:52.319Z,33.10
2018-12-29T07:47:41.735Z,34.10
2018-12-29T07:50:30.757Z,33.80
2018-12-29T07:53:19.437Z,36.40
2018-12-29T07:56:08.518Z,32.87
2018-12-29T07:58:57.856Z,32.77
2018-12-29T08:01:47.155Z,32.57
2018-12-29T08:04:36.201Z,34.87
2018-12-29T08:07:24.597Z,31.77
2018-12-29T08:10:14.168Z,34.00
2018-12-29T08:13:03.229Z,32.50
2018-12-29T08:15:52.561Z,31.17
2018-12-29T08:18:41.849Z,34.30
2018-12-29T08:21:31.168Z,32.90
2018-12-29T08:24:20.616Z,32.80
2018-12-29T08:26:50.786Z,31.93
2018-12-29T08:29:39.607Z,35.10
2018-12-29T08:32:28.580Z,32.13
2018-12-29T08:35:18.255Z,31.53
2018-12-29T08:38:07.508Z,30.93
2018-12-29T08:40:56.902Z,33.57
2018-12-29T08:43:45.430Z,32.67
2018-12-29T08:46:34.355Z,32.50
2018-12-29T08:49:23.248Z,33.17
2018-12-29T08:52:12.244Z,32.27
2018-12-29T08:55:01.223Z,33.47
2018-12-29T08:57:50.294Z,32.63
2018-12-29T09:00:39.706Z,32.20
2018-12-29T09:03:29.033Z,32.40
2018-12-29T09:06:17.526Z,33.50
2018-12-29T09:08:54.973Z,31.83
2018-12-29T09:11:44.155Z,35.67
2018-12-29T09:14:33.226Z,31.13
2018-12-29T09:17:22.314Z,31.77
2018-12-29T09:20:11.732Z,33.40
2018-12-29T09:23:00.951Z,30.57
2018-12-29T09:25:49.582Z,32.27
2018-12-29T09:28:38.977Z,30.00
2018-12-29T09:31:27.839Z,32.27
2018-12-29T09:34:22.355Z,30.50
2018-12-29T09:37:07.939Z,29.40
2018-12-29T09:39:57.392Z,29.77
2018-12-29T09:42:46.582Z,31.03
2018-12-29T09:45:35.119Z,31.30
2018-12-29T09:48:23.937Z,32.30
2018-12-29T09:50:54.684Z,31.60
2018-12-29T09:53:44.201Z,32.00
2018-12-29T09:56:33.155Z,31.33
2018-12-29T09:59:22.328Z,29.57
2018-12-29T10:01:54.554Z,31.30
2018-12-29T10:04:43.666Z,31.30
2018-12-29T10:07:33.132Z,31.10
2018-12-29T10:10:22.021Z,31.33
2018-12-29T10:13:11.553Z,29.90
2018-12-29T10:16:00.936Z,31.53
2018-12-29T10:18:50.043Z,30.70
2018-12-29T10:21:39.411Z,31.27
2018-12-29T10:24:29.175Z,31.73
2018-12-29T10:27:18.524Z,31.00
2018-12-29T10:30:14.048Z,32.73
2018-12-29T10:33:08.242Z,31.33
2018-12-29T10:35:38.397Z,31.10
2018-12-29T10:38:27.510Z,31.97
2018-12-29T10:41:16.886Z,31.63
2018-12-29T10:44:06.526Z,31.57
2018-12-29T10:46:55.786Z,32.00
2018-12-29T10:49:45.439Z,29.63
2018-12-29T10:52:36.776Z,31.93
2018-12-29T10:55:25.785Z,31.77
2018-12-29T10:58:14.904Z,31.20
2018-12-29T11:01:03.997Z,31.83
2018-12-29T11:03:53.310Z,33.73
2018-12-29T11:06:42.253Z,32.60
2018-12-29T11:09:31.787Z,31.40
2018-12-29T11:12:23.869Z,31.70
2018-12-29T11:15:20.604Z,32.03
2018-12-29T11:17:51.238Z,31.17
2018-12-29T11:20:40.302Z,32.57
2018-12-29T11:23:35.987Z,30.67
2018-12-29T11:26:25.420Z,28.80
2018-12-29T11:29:19.242Z,30.97
2018-12-29T11:32:13.723Z,31.17
2018-12-29T11:35:08.096Z,29.20
2018-12-29T11:37:57.573Z,27.80
2018-12-29T11:40:46.408Z,29.37
2018-12-29T11:43:36.297Z,27.90
2018-12-29T11:46:25.497Z,29.47
2018-12-29T11:49:18.152Z,28.40
2018-12-29T11:52:04.901Z,27.87
2018-12-29T11:54:53.945Z,28.73
2018-12-29T11:57:43.446Z,28.63
2018-12-29T12:00:13.654Z,26.93
2018-12-29T12:03:02.391Z,28.27
2018-12-29T12:05:51.369Z,26.00
2018-12-29T12:08:40.268Z,28.50
2018-12-29T12:11:22.715Z,25.57
2018-12-29T12:14:12.199Z,27.77
2018-12-29T12:17:01.289Z,25.80
2018-12-29T12:19:50.451Z,26.30
2018-12-29T12:22:39.045Z,26.90
2018-12-29T12:25:27.991Z,26.57
2018-12-29T12:28:17.319Z,26.17
2018-12-29T12:31:06.849Z,24.87
2018-12-29T12:33:55.961Z,24.90
2018-12-29T12:36:45.315Z,25.10
2018-12-29T12:39:34.123Z,23.27
2018-12-29T12:42:23.679Z,23.43
2018-12-29T12:45:13.172Z,25.03
2018-12-29T12:48:05.354Z,24.60
2018-12-29T12:50:52.076Z,25.13
2018-12-29T12:53:41.166Z,24.63
2018-12-29T12:56:30.664Z,25.73
2018-12-29T12:59:01.365Z,23.60
2018-12-29T13:01:50.391Z,23.27
2018-12-29T13:04:39.169Z,22.77
2018-12-29T13:07:28.763Z,24.93
2018-12-29T13:10:17.856Z,24.47
2018-12-29T13:13:06.662Z,24.97
2018-12-29T13:15:55.967Z,24.30
2018-12-29T13:18:45.305Z,24.43
2018-12-29T13:21:34.288Z,22.73
2018-12-29T13:24:23.169Z,23.53
2018-12-29T13:27:12.597Z,23.37
2018-12-29T13:30:02.033Z,23.53
2018-12-29T13:32:51.080Z,25.23
2018-12-29T13:35:39.809Z,23.90
2018-12-29T13:38:28.973Z,23.90
2018-12-29T13:41:17.371Z,24.50
2018-12-29T13:44:06.956Z,23.60
2018-12-29T13:46:56.386Z,23.17
2018-12-29T13:49:45.372Z,23.57
2018-12-29T13:52:35.079Z,25.27
2018-12-29T13:55:24.186Z,24.77
2018-12-29T13:58:12.853Z,22.70
2018-12-29T14:01:02.672Z,21.97
2018-12-29T14:03:51.924Z,23.60
2018-12-29T14:06:28.631Z,22.50
2018-12-29T14:09:18.059Z,21.93
2018-12-29T14:12:07.427Z,22.40
2018-12-29T14:14:57.070Z,22.40
2018-12-29T14:17:45.795Z,21.70
2018-12-29T14:20:34.814Z,20.17
2018-12-29T14:23:24.064Z,20.63
2018-12-29T14:26:13.062Z,19.27
2018-12-29T14:29:01.780Z,20.60
2018-12-29T14:31:51.422Z,20.83
2018-12-29T14:34:40.087Z,19.50
2018-12-29T14:37:29.065Z,18.40
2018-12-29T14:40:19.150Z,19.50
2018-12-29T14:43:08.226Z,20.57
2018-12-29T14:45:57.583Z,19.20
2018-12-29T14:48:35.999Z,17.63
2018-12-29T14:51:06.031Z,16.80
2018-12-29T14:53:56.905Z,17.37
2018-12-29T14:56:46.124Z,17.60
2018-12-29T14:59:35.494Z,16.57
2018-12-29T15:02:24.285Z,17.00
2018-12-29T15:05:12.945Z,16.57
2018-12-29T15:08:01.928Z,15.20
2018-12-29T15:10:50.663Z,14.87
2018-12-29T15:13:40.156Z,14.87
2018-12-29T15:16:29.280Z,13.67
2018-12-29T15:19:18.265Z,15.10
2018-12-29T15:22:07.799Z,14.83
2018-12-29T15:24:56.956Z,14.70
2018-12-29T15:27:45.388Z,17.23
2018-12-29T15:30:34.455Z,14.50
2018-12-29T15:33:04.611Z,15.43
2018-12-29T15:35:53.515Z,14.23
2018-12-29T15:38:42.596Z,15.20
2018-12-29T15:41:31.330Z,16.77
2018-12-29T15:44:22.906Z,15.60
2018-12-29T15:47:12.094Z,16.47
2018-12-29T15:50:00.769Z,19.40
2018-12-29T15:52:54.805Z,20.03
2018-12-29T15:55:44.453Z,21.93
2018-12-29T15:58:34.174Z,22.80
2018-12-29T16:01:26.188Z,21.37
2018-12-29T16:04:19.794Z,22.50
2018-12-29T16:07:09.318Z,25.73
2018-12-29T16:09:58.268Z,25.83
2018-12-29T16:12:46.953Z,24.70
2018-12-29T16:15:17.674Z,25.93
2018-12-29T16:18:06.718Z,26.40
2018-12-29T16:20:55.532Z,26.53
2018-12-29T16:23:44.840Z,27.23
2018-12-29T16:26:33.535Z,27.10
2018-12-29T16:29:22.128Z,26.70
2018-12-29T16:32:10.963Z,25.30
2018-12-29T16:35:00.577Z,26.30
2018-12-29T16:37:44.698Z,26.17
2018-12-29T16:40:33.750Z,26.23
2018-12-29T16:43:23.332Z,25.20
2018-12-29T16:46:12.607Z,24.87
2018-12-29T16:49:06.744Z,25.43
2018-12-29T16:51:52.267Z,23.40
2018-12-29T16:54:40.758Z,22.33
2018-12-29T16:57:30.432Z,23.37
2018-12-29T17:00:19.737Z,23.97
2018-12-29T17:03:09.276Z,24.83
2018-12-29T17:05:58.245Z,24.00
2018-12-29T17:08:47.424Z,23.70
2018-12-29T17:11:36.911Z,23.83
2018-12-29T17:14:25.474Z,21.80
2018-12-29T17:17:14.351Z,21.17
2018-12-29T17:20:03.315Z,22.50
2018-12-29T17:22:53.036Z,22.70
2018-12-29T17:25:41.569Z,22.27
2018-12-29T17:28:31.471Z,22.87
2018-12-29T17:31:25.583Z,21.93
2018-12-29T17:33:55.776Z,21.47
2018-12-29T17:36:45.392Z,20.53
2018-12-29T17:39:34.334Z,21.60
2018-12-29T17:42:22.771Z,21.53
2018-12-29T17:45:11.758Z,22.60
2018-12-29T17:48:01.638Z,21.53
2018-12-29T17:50:50.540Z,23.17
2018-12-29T17:53:47.777Z,22.27
2018-12-29T17:56:30.821Z,21.17
2018-12-29T17:59:20.189Z,24.10
2018-12-29T18:02:09.476Z,22.00
2018-12-29T18:04:59.256Z,22.30
2018-12-29T18:07:48.170Z,22.70
2018-12-29T18:10:37.910Z,23.63
2018-12-29T18:13:27.256Z,23.63
2018-12-29T18:16:16.740Z,22.93
2018-12-29T18:19:06.126Z,24.60
2018-12-29T18:21:55.734Z,25.10
2018-12-29T18:24:44.598Z,23.77
2018-12-29T18:27:33.752Z,24.60
2018-12-29T18:30:22.960Z,23.27
2018-12-29T18:33:12.454Z,26.03
2018-12-29T18:36:01.871Z,26.33
2018-12-29T18:38:40.818Z,26.57
2018-12-29T18:41:11.351Z,25.97
2018-12-29T18:44:00.477Z,27.37
2018-12-29T18:46:49.190Z,25.10
2018-12-29T18:49:39.022Z,28.03
2018-12-29T18:52:28.228Z,27.60
2018-12-29T18:55:17.722Z,28.60
2018-12-29T18:58:07.325Z,29.03
2018-12-29T19:00:57.326Z,29.20
2018-12-29T19:03:46.238Z,30.27
2018-12-29T19:06:35.924Z,30.40
2018-12-29T19:09:24.305Z,30.87
2018-12-29T19:12:13.880Z,31.70
2018-12-29T19:15:03.321Z,33.43
2018-12-29T19:17:52.902Z,32.03
2018-12-29T19:20:42.325Z,31.47
2018-12-29T19:23:16.107Z,35.33
2018-12-29T19:26:06.018Z,33.33
2018-12-29T19:28:55.668Z,34.30
2018-12-29T19:31:46.383Z,36.10
2018-12-29T19:34:35.319Z,34.63
2018-12-29T19:37:25.020Z,35.87
2018-12-29T19:40:14.756Z,36.00
2018-12-29T19:43:04.425Z,36.27
2018-12-29T19:45:53.056Z,38.00
2018-12-29T19:48:41.925Z,37.47
2018-12-29T19:51:31.282Z,38.67
2018-12-29T19:54:20.388Z,36.90
2018-12-29T19:56:51.018Z,36.70
2018-12-29T19:59:40.967Z,37.40
2018-12-29T20:02:30.070Z,38.63
2018-12-29T20:05:18.930Z,36.77
2018-12-29T20:08:08.199Z,36.07
2018-12-29T20:10:57.214Z,36.07
2018-12-29T20:13:46.410Z,35.87
2018-12-29T20:16:35.644Z,33.60
2018-12-29T20:19:24.793Z,33.07
2018-12-29T20:22:15.513Z,35.13
2018-12-29T20:25:05.228Z,33.50
2018-12-29T20:27:54.865Z,32.80
2018-12-29T20:30:25.634Z,33.93
2018-12-29T20:33:14.508Z,35.40
2018-12-29T20:36:03.494Z,34.73
2018-12-29T20:38:53.115Z,34.70
2018-12-29T20:41:42.818Z,32.33
2018-12-29T20:44:31.993Z,31.80
2018-12-29T20:47:21.417Z,33.43
2018-12-29T20:50:11.134Z,31.40
2018-12-29T20:53:01.404Z,29.57
2018-12-29T20:55:50.702Z,26.70
2018-12-29T20:58:40.307Z,26.00
2018-12-29T21:01:29.785Z,24.53
2018-12-29T21:04:18.668Z,24.30
2018-12-29T21:07:07.932Z,22.50
2018-12-29T21:09:56.483Z,20.73
2018-12-29T21:12:45.797Z,19.40
2018-12-29T21:15:34.419Z,18.67
2018-12-29T21:18:24.041Z,20.73
2018-12-29T21:21:14.170Z,17.90
2018-12-29T21:23:57.383Z,18.57
2018-12-29T21:26:47.014Z,15.23
2018-12-29T21:29:36.119Z,15.70
2018-12-29T21:32:24.878Z,14.53
2018-12-29T21:35:13.768Z,13.70
2018-12-29T21:38:03.089Z,11.90
2018-12-29T21:40:52.393Z,11.40
2018-12-29T21:43:41.900Z,10.20
2018-12-29T21:46:31.384Z,9.80
2018-12-29T21:49:20.913Z,8.57
2018-12-29T21:52:10.051Z,6.77
2018-12-29T21:54:59.284Z,7.10
2018-12-29T21:57:48.457Z,6.90
2018-12-29T22:00:37.089Z,5.33
2018-12-29T22:03:26.868Z,5.13
2018-12-29T22:06:16.163Z,5.07
2018-12-29T22:09:07.058Z,5.07
2018-12-29T22:11:56.255Z,4.93
2018-12-29T22:14:26.961Z,4.23
2018-12-29T22:17:16.440Z,3.60
2018-12-29T22:20:06.401Z,4.70
2018-12-29T22:22:55.675Z,4.63
2018-12-29T22:25:48.383Z,5.03
2018-12-29T22:28:35.766Z,4.50
2018-12-29T22:31:25.104Z,3.60
2018-12-29T22:34:14.221Z,4.10
2018-12-29T22:37:03.287Z,4.50
2018-12-29T22:39:33.872Z,4.53
2018-12-29T22:42:22.937Z,4.33
2018-12-29T22:45:12.159Z,4.90
2018-12-29T22:48:00.770Z,4.80
2018-12-29T22:50:50.137Z,4.00
2018-12-29T22:53:38.943Z,4.67
2018-12-29T22:56:28.260Z,3.80
2018-12-29T22:59:18.534Z,4.47
2018-12-29T23:02:07.609Z,4.30
2018-12-29T23:04:57.403Z,4.67
2018-12-29T23:07:46.478Z,4.27
2018-12-29T23:10:35.714Z,3.80
2018-12-29T23:13:06.330Z,4.60
2018-12-29T23:15:55.399Z,4.20
2018-12-29T23:18:44.061Z,3.80
2018-12-29T23:21:33.270Z,4.20
2018-12-29T23:24:23.008Z,4.00
2018-12-29T23:27:13.276Z,4.30
2018-12-29T23:30:02.287Z,3.63
2018-12-29T23:32:51.483Z,4.40
2018-12-29T23:35:40.651Z,3.77
2018-12-29T23:38:29.827Z,3.93
2018-12-29T23:41:19.145Z,4.70
2018-12-29T23:44:07.734Z,4.70
2018-12-29T23:46:51.062Z,4.30
2018-12-29T23:49:40.631Z,4.43
2018-12-29T23:52:30.723Z,4.30
2018-12-29T23:55:19.564Z,4.30
2018-12-29T23:58:08.278Z,4.40
